Time;durP1;ratioP1;P1;durP2;ratioP2;P2;SDS_P1;SDS_P2;PMS_P1;PMS_P2;Temp;Humidity;BMP_temperature;BMP_pressure;BME280_temperature;BME280_humidity;BME280_pressure;Samples;Min_cycle;Max_cycle;Signal;HPM_P1;HPM_P2
2022/06/04 00:00:11;;;;;;;3.13;2.83;;;;;;;17.01;68.01;100822.25;4987448;28;20534;-73
2022/06/04 00:02:39;;;;;;;4.60;3.13;;;;;;;16.98;67.96;100825.03;4988892;28;20414;-73
2022/06/04 00:05:08;;;;;;;3.17;2.80;;;;;;;16.94;68.24;100823.44;4988385;28;20201;-73
2022/06/04 00:07:37;;;;;;;3.57;3.10;;;;;;;16.90;68.56;100814.84;4988125;28;20210;-73
2022/06/04 00:15:39;;;;;;;3.60;2.93;;;;;;;16.75;69.52;100812.97;4967324;28;20569;-73
2022/06/04 00:18:05;;;;;;;3.60;3.30;;;;;;;16.66;70.81;100807.22;4988934;28;20197;-73
2022/06/04 00:20:31;;;;;;;3.17;2.87;;;;;;;16.61;72.37;100805.72;4993547;28;20212;-74
2022/06/04 00:23:01;;;;;;;3.27;2.73;;;;;;;16.50;74.15;100803.63;4993838;28;20201;-72
2022/06/04 00:25:28;;;;;;;5.60;2.87;;;;;;;16.42;74.15;100803.13;4989748;28;20212;-73
2022/06/04 00:27:58;;;;;;;3.40;3.10;;;;;;;16.37;74.92;100802.50;4993922;28;20229;-73
2022/06/04 00:30:24;;;;;;;3.37;2.90;;;;;;;16.33;74.56;100800.94;4993630;28;20259;-71
2022/06/04 00:32:52;;;;;;;3.63;2.37;;;;;;;16.30;74.99;100801.94;5008792;28;20221;-71
2022/06/04 00:35:19;;;;;;;4.97;3.10;;;;;;;16.27;74.21;100808.19;4993286;28;20219;-70
2022/06/04 00:37:46;;;;;;;3.40;3.10;;;;;;;16.26;75.26;100801.22;5009059;28;20528;-71
2022/06/04 00:40:20;;;;;;;3.07;2.77;;;;;;;16.21;74.54;100805.84;5005242;28;20215;-71
2022/06/04 00:42:46;;;;;;;3.73;3.13;;;;;;;16.19;74.11;100812.09;4992915;28;20229;-73
2022/06/04 00:45:59;;;;;;;3.90;3.10;;;;;;;16.16;74.03;100801.72;4988874;28;20215;-73
2022/06/04 00:48:25;;;;;;;3.57;2.87;;;;;;;16.12;74.44;100803.66;4987287;28;20214;-73
2022/06/04 00:50:52;;;;;;;3.20;2.83;;;;;;;16.09;75.56;100803.78;4981869;28;20225;-74
2022/06/04 00:53:19;;;;;;;3.80;3.40;;;;;;;16.03;76.34;100807.56;4988051;28;20202;-74
2022/06/04 00:55:55;;;;;;;3.27;2.97;;;;;;;15.94;78.61;100805.34;4988575;28;20205;-73
2022/06/04 00:58:38;;;;;;;3.87;3.30;;;;;;;15.87;79.16;100803.94;4986245;28;20190;-72
2022/06/04 01:01:14;;;;;;;3.67;3.37;;;;;;;15.83;78.86;100804.97;4986030;28;20685;-73
2022/06/04 01:03:56;;;;;;;6.17;3.50;;;;;;;15.80;79.27;100810.38;4982953;28;20693;-74
2022/06/04 01:06:34;;;;;;;3.67;3.00;;;;;;;15.76;80.32;100812.31;4987542;28;20201;-73
2022/06/04 01:09:21;;;;;;;3.40;3.10;;;;;;;15.71;85.35;100822.97;4988241;28;20259;-73
2022/06/04 01:12:11;;;;;;;3.87;3.43;;;;;;;15.61;87.56;100841.84;4982835;28;20224;-72
2022/06/04 01:14:51;;;;;;;4.87;3.30;;;;;;;15.57;86.49;100830.63;4987975;28;20205;-71
2022/06/04 01:21:09;;;;;;;3.37;3.07;;;;;;;15.63;85.96;100848.72;4959041;28;20268;-72
2022/06/04 01:24:09;;;;;;;3.70;3.37;;;;;;;15.61;84.23;100845.31;4984528;28;20648;-73
2022/06/04 01:27:01;;;;;;;3.40;3.10;;;;;;;15.62;84.95;100854.06;4988365;28;20544;-74
2022/06/04 01:29:33;;;;;;;3.70;3.30;;;;;;;15.60;86.89;100854.16;4986411;28;20220;-73
2022/06/04 01:32:06;;;;;;;6.47;3.30;;;;;;;15.57;88.21;100848.16;4985872;28;20239;-73
2022/06/04 01:34:38;;;;;;;4.50;3.30;;;;;;;15.59;86.01;100851.59;4978983;28;20209;-72
2022/06/04 01:37:10;;;;;;;3.40;3.10;;;;;;;15.61;85.83;100866.34;4985937;28;20211;-71
2022/06/04 01:42:29;;;;;;;4.10;3.40;;;;;;;15.59;85.62;100849.81;4985709;28;20619;-72
2022/06/04 01:44:58;;;;;;;3.40;3.10;;;;;;;15.60;85.83;100851.53;4987467;28;20204;-72
2022/06/04 01:47:26;;;;;;;3.70;2.83;;;;;;;15.63;85.54;100847.88;4984107;28;20807;-73
2022/06/04 01:49:56;;;;;;;3.40;3.10;;;;;;;15.64;86.15;100855.72;4986411;28;20206;-72
2022/06/04 01:52:29;;;;;;;3.80;3.40;;;;;;;15.62;86.76;100847.03;4984985;28;20248;-70
2022/06/04 01:55:01;;;;;;;3.37;3.07;;;;;;;15.62;86.58;100846.16;4992841;28;20201;-73
2022/06/04 01:57:36;;;;;;;3.80;3.40;;;;;;;15.61;88.49;100847.09;4990366;28;20207;-73
2022/06/04 02:00:09;;;;;;;4.30;3.40;;;;;;;15.60;88.85;100850.63;4990871;28;20836;-72
2022/06/04 02:02:39;;;;;;;3.60;3.30;;;;;;;15.59;88.07;100843.69;4982732;28;20307;-73
2022/06/04 02:05:13;;;;;;;4.63;3.90;;;;;;;15.57;90.85;100848.16;4987159;28;20231;-73
2022/06/04 02:07:44;;;;;;;7.40;3.23;;;;;;;15.52;92.70;100851.00;4990558;28;20570;-73
2022/06/04 02:10:16;;;;;;;3.33;2.90;;;;;;;15.49;91.87;100844.06;4991071;28;20204;-73
2022/06/04 02:12:46;;;;;;;3.80;3.43;;;;;;;15.50;92.64;100839.69;4991761;28;20741;-73
2022/06/04 02:15:16;;;;;;;3.80;3.30;;;;;;;15.47;94.41;100840.66;4993916;28;20214;-73
2022/06/04 02:17:46;;;;;;;4.00;3.60;;;;;;;15.46;93.16;100838.97;4993913;28;20201;-73
2022/06/04 02:20:14;;;;;;;3.97;3.53;;;;;;;15.45;95.45;100845.13;4991307;28;20239;-73
2022/06/04 02:22:41;;;;;;;3.60;3.27;;;;;;;15.41;98.46;100847.94;4993413;28;20497;-73
2022/06/04 02:25:11;;;;;;;3.70;3.40;;;;;;;15.38;98.55;100846.31;4991050;28;20334;-71
2022/06/04 02:27:39;;;;;;;4.23;3.77;;;;;;;15.37;96.61;100849.84;4990191;28;20208;-72
2022/06/04 02:30:09;;;;;;;4.13;3.43;;;;;;;15.37;95.43;100849.00;4990660;28;20201;-72
2022/06/04 02:32:44;;;;;;;3.77;3.47;;;;;;;15.34;95.45;100837.72;4990416;28;20773;-73
2022/06/04 02:35:16;;;;;;;6.20;3.80;;;;;;;15.35;95.29;100841.19;4988125;28;20216;-73
2022/06/04 02:37:50;;;;;;;5.47;3.60;;;;;;;15.32;94.87;100842.19;4989602;28;20204;-73
2022/06/04 02:40:21;;;;;;;3.43;3.13;;;;;;;15.31;96.61;100837.00;4990656;28;20212;-72
2022/06/04 02:42:53;;;;;;;5.27;3.60;;;;;;;15.30;94.53;100838.78;4989906;28;20254;-73
2022/06/04 02:45:26;;;;;;;3.80;3.40;;;;;;;15.31;94.40;100835.22;4989688;28;20204;-74
2022/06/04 02:47:58;;;;;;;5.53;3.33;;;;;;;15.32;93.85;100842.19;4986174;28;20225;-71
2022/06/04 02:50:30;;;;;;;5.33;3.77;;;;;;;15.32;94.44;100843.97;4989283;28;20210;-72
2022/06/04 02:52:58;;;;;;;6.50;3.57;;;;;;;15.30;97.21;100838.78;4989937;28;20203;-73
2022/06/04 02:55:29;;;;;;;5.17;3.60;;;;;;;15.27;99.89;100844.16;4989974;28;20207;-72
2022/06/04 02:57:59;;;;;;;4.03;3.67;;;;;;;15.25;99.24;100851.25;4990459;28;20203;-73
2022/06/04 03:00:29;;;;;;;4.40;3.97;;;;;;;15.25;98.81;100850.38;4986983;28;20537;-73
2022/06/04 03:02:56;;;;;;;5.43;3.90;;;;;;;15.25;99.81;100860.88;4983295;28;20200;-73
2022/06/04 03:05:26;;;;;;;4.87;3.80;;;;;;;15.21;99.64;100861.94;4986433;28;20207;-73
2022/06/04 03:07:55;;;;;;;4.40;4.00;;;;;;;15.20;100.00;100858.47;4983050;28;20228;-73
2022/06/04 03:10:25;;;;;;;4.00;3.60;;;;;;;15.17;100.00;100853.34;4986151;28;20292;-72
2022/06/04 03:12:51;;;;;;;3.97;3.57;;;;;;;15.16;100.00;100854.22;4986577;28;20211;-73
2022/06/04 03:15:18;;;;;;;4.67;4.07;;;;;;;15.17;100.00;100850.72;4985482;28;20218;-73
2022/06/04 03:17:47;;;;;;;4.40;4.00;;;;;;;15.17;100.00;100857.75;4987958;28;20200;-73
2022/06/04 03:20:19;;;;;;;6.33;4.03;;;;;;;15.15;100.00;100858.66;4989168;28;20214;-72
2022/06/04 03:22:45;;;;;;;4.57;4.00;;;;;;;15.15;100.00;100855.16;4988213;28;20217;-73
2022/06/04 03:25:12;;;;;;;5.77;4.07;;;;;;;15.12;100.00;100852.66;4993746;28;20673;-72
2022/06/04 03:27:38;;;;;;;4.43;4.00;;;;;;;15.13;100.00;100846.50;4987631;28;20207;-73
2022/06/04 03:30:06;;;;;;;5.80;3.97;;;;;;;15.14;100.00;100853.44;4987493;28;20410;-73
2022/06/04 03:32:33;;;;;;;4.57;3.80;;;;;;;15.15;100.00;100855.16;4981592;28;20759;-73
2022/06/04 03:35:01;;;;;;;4.37;3.97;;;;;;;15.17;100.00;100855.97;4988998;28;20215;-73
2022/06/04 03:37:27;;;;;;;5.63;4.27;;;;;;;15.21;100.00;100864.56;4988856;28;20217;-72
2022/06/04 03:39:54;;;;;;;4.33;3.93;;;;;;;15.24;100.00;100867.06;4987073;28;20307;-73
2022/06/04 03:42:20;;;;;;;6.77;4.30;;;;;;;15.26;100.00;100863.44;4989152;28;20228;-72
2022/06/04 03:44:47;;;;;;;4.70;4.20;;;;;;;15.28;100.00;100866.84;4989341;28;20207;-73
2022/06/04 03:47:16;;;;;;;5.33;4.00;;;;;;;15.29;100.00;100860.69;4986445;28;20209;-72
2022/06/04 03:49:42;;;;;;;6.23;4.10;;;;;;;15.29;100.00;100871.19;4988826;28;20214;-73
2022/06/04 03:52:11;;;;;;;5.57;4.33;;;;;;;15.32;100.00;100876.34;4988304;28;20232;-73
2022/06/04 03:54:57;;;;;;;5.17;4.40;;;;;;;15.33;100.00;100872.78;4988409;28;20215;-73
2022/06/04 03:57:41;;;;;;;4.77;4.30;;;;;;;15.36;100.00;100871.81;4988320;28;20197;-73
2022/06/04 04:00:15;;;;;;;6.03;4.70;;;;;;;15.39;100.00;100870.81;4989149;28;20201;-73
2022/06/04 04:02:45;;;;;;;5.27;4.43;;;;;;;15.40;100.00;100872.53;4985131;28;20216;-73
2022/06/04 04:05:14;;;;;;;6.53;5.00;;;;;;;15.40;100.00;100870.75;4983689;28;20216;-73
2022/06/04 04:07:43;;;;;;;6.30;4.73;;;;;;;15.44;100.00;100871.47;4987786;28;20198;-73
2022/06/04 04:10:10;;;;;;;6.50;5.00;;;;;;;15.46;100.00;100867.88;4988831;28;20201;-72
2022/06/04 04:12:38;;;;;;;5.87;5.27;;;;;;;15.49;100.00;100870.34;4989157;28;20223;-73
2022/06/04 04:15:05;;;;;;;5.20;4.70;;;;;;;15.54;100.00;100859.66;4990358;28;20220;-70
2022/06/04 04:17:32;;;;;;;5.20;4.80;;;;;;;15.58;100.00;100861.22;4985704;28;20205;-70
2022/06/04 04:19:58;;;;;;;6.07;5.47;;;;;;;15.63;100.00;100867.13;4986467;28;20203;-72
2022/06/04 04:22:25;;;;;;;6.17;5.57;;;;;;;15.66;100.00;100859.13;4989073;28;20221;-73
2022/06/04 04:24:54;;;;;;;7.80;5.77;;;;;;;15.68;100.00;100857.28;4984181;28;20215;-73
2022/06/04 04:27:21;;;;;;;6.73;5.40;;;;;;;15.69;100.00;100848.47;4988269;28;20590;-73
2022/06/04 04:29:47;;;;;;;7.07;5.77;;;;;;;15.71;100.00;100843.16;4988775;28;20216;-74
2022/06/04 04:32:13;;;;;;;6.67;5.70;;;;;;;15.73;100.00;100843.94;4988417;28;20224;-73
2022/06/04 04:34:40;;;;;;;5.80;5.20;;;;;;;15.78;100.00;100846.41;4988969;28;20203;-73
2022/06/04 04:37:06;;;;;;;5.97;5.37;;;;;;;15.82;100.00;100840.94;4988202;28;20201;-72
2022/06/04 04:39:33;;;;;;;5.73;5.13;;;;;;;15.86;100.00;100845.13;4987966;28;20677;-72
2022/06/04 04:42:01;;;;;;;5.77;5.17;;;;;;;15.92;100.00;100848.41;4988506;28;20275;-73
2022/06/04 04:44:27;;;;;;;6.10;5.50;;;;;;;15.93;100.00;100847.50;4987968;28;20193;-73
2022/06/04 04:46:53;;;;;;;6.30;5.70;;;;;;;15.98;100.00;100856.88;4987704;28;20193;-72
2022/06/04 04:49:20;;;;;;;7.27;5.77;;;;;;;16.01;100.00;100855.91;4985057;28;20221;-74
2022/06/04 04:51:47;;;;;;;6.13;4.80;;;;;;;16.05;100.00;100850.41;4977300;23;20226;-72
2022/06/04 04:54:14;;;;;;;5.70;5.20;;;;;;;16.09;100.00;100841.47;4944279;28;20659;-74
2022/06/04 04:56:41;;;;;;;6.27;5.20;;;;;;;16.09;100.00;100838.84;4934069;28;20238;-74
2022/06/04 04:59:09;;;;;;;5.97;5.03;;;;;;;16.14;100.00;100845.66;4926190;29;20204;-72
2022/06/04 05:01:36;;;;;;;6.10;5.50;;;;;;;16.14;100.00;100856.19;4922796;29;20204;-73
2022/06/04 05:04:02;;;;;;;6.17;5.57;;;;;;;16.17;100.00;100861.31;4926005;29;20203;-74
2022/06/04 05:06:30;;;;;;;5.63;5.13;;;;;;;16.23;100.00;100867.13;4939367;23;20242;-73
2022/06/04 05:08:56;;;;;;;5.40;4.90;;;;;;;16.28;100.00;100857.25;4925559;29;20586;-73
2022/06/04 05:11:27;;;;;;;5.23;4.73;;;;;;;16.32;98.54;100857.09;4927524;29;20207;-74
2022/06/04 05:13:54;;;;;;;5.17;4.67;;;;;;;16.38;98.90;100860.31;4924868;29;20206;-73
2022/06/04 05:16:24;;;;;;;5.13;4.47;;;;;;;16.40;95.57;100870.78;4919747;29;20227;-73
2022/06/04 05:18:50;;;;;;;5.67;5.07;;;;;;;16.44;94.28;100877.59;4921686;29;20365;-73
2022/06/04 05:21:21;;;;;;;4.93;4.40;;;;;;;16.41;95.07;100872.47;4925852;29;20212;-73
2022/06/04 05:23:48;;;;;;;5.43;4.93;;;;;;;16.43;94.65;100881.16;4933000;29;20207;-74
2022/06/04 05:26:14;;;;;;;5.43;4.93;;;;;;;16.48;93.13;100881.81;4929705;29;20262;-73
2022/06/04 05:28:40;;;;;;;5.67;5.03;;;;;;;16.55;95.83;100877.97;4921241;29;20226;-74
2022/06/04 05:31:07;;;;;;;5.30;4.80;;;;;;;16.57;95.18;100876.09;4924406;29;20597;-74
2022/06/04 05:33:35;;;;;;;5.33;4.83;;;;;;;16.59;92.63;100878.66;4930999;29;20642;-74
2022/06/04 05:36:02;;;;;;;5.63;5.03;;;;;;;16.63;94.13;100878.41;4923815;29;20227;-74
2022/06/04 05:38:34;;;;;;;5.43;4.93;;;;;;;16.69;92.36;100874.63;4928056;29;20210;-74
2022/06/04 05:41:01;;;;;;;5.67;5.17;;;;;;;16.76;91.73;100865.56;4924028;29;20207;-73
2022/06/04 05:43:29;;;;;;;6.10;5.30;;;;;;;16.86;90.58;100871.25;4931019;28;20210;-73
2022/06/04 05:45:59;;;;;;;5.33;4.83;;;;;;;16.93;88.49;100875.28;4921876;29;20228;-73
2022/06/04 05:48:26;;;;;;;5.13;4.63;;;;;;;17.00;86.33;100879.31;4926488;29;20207;-74
2022/06/04 05:50:55;;;;;;;5.00;4.60;;;;;;;17.08;87.20;100875.44;4929885;29;20656;-73
2022/06/04 05:53:22;;;;;;;5.70;5.20;;;;;;;17.16;85.46;100884.69;4926986;29;20250;-73
2022/06/04 05:55:49;;;;;;;6.70;4.97;;;;;;;17.26;86.79;100887.72;4927204;29;20254;-74
2022/06/04 05:58:16;;;;;;;5.83;5.27;;;;;;;17.34;84.48;100897.88;4928564;29;20654;-73
2022/06/04 06:00:42;;;;;;;5.60;5.10;;;;;;;17.37;82.62;100895.94;4927216;29;21269;-73
2022/06/04 06:03:09;;;;;;;6.23;5.33;;;;;;;17.42;82.23;100893.06;4930188;29;20211;-74
2022/06/04 06:05:40;;;;;;;5.73;5.13;;;;;;;17.48;82.38;100905.94;4927898;29;20210;-74
2022/06/04 06:08:08;;;;;;;5.50;5.00;;;;;;;17.55;81.83;100911.75;4928979;29;20506;-73
2022/06/04 06:10:39;;;;;;;5.30;4.90;;;;;;;17.54;80.93;100916.19;4930138;29;20222;-73
2022/06/04 06:13:05;;;;;;;5.50;5.00;;;;;;;17.52;78.75;100917.16;4925695;28;20203;-74
2022/06/04 06:15:31;;;;;;;5.60;5.10;;;;;;;17.55;78.03;100919.66;4925997;29;20759;-73
2022/06/04 06:17:58;;;;;;;7.77;6.97;;;;;;;17.54;77.66;100918.81;4923749;28;20224;-74
2022/06/04 06:20:24;;;;;;;6.63;5.43;;;;;;;17.46;76.35;100917.50;4923096;29;20204;-73
2022/06/04 06:22:51;;;;;;;5.43;4.93;;;;;;;17.44;75.74;100917.56;4928612;29;20459;-73
2022/06/04 06:25:18;;;;;;;7.30;4.63;;;;;;;17.44;76.38;100922.00;4923875;29;20204;-73
2022/06/04 06:27:46;;;;;;;6.93;6.00;;;;;;;17.46;80.07;100922.75;4924301;29;20231;-73
2022/06/04 06:30:13;;;;;;;5.90;5.30;;;;;;;17.43;78.03;100931.69;4919585;29;20235;-73
2022/06/04 06:32:40;;;;;;;5.00;4.50;;;;;;;17.40;78.49;100937.97;4923789;29;20215;-75
2022/06/04 06:35:08;;;;;;;5.43;4.93;;;;;;;17.34;78.47;100942.66;4928610;29;20211;-76
2022/06/04 06:37:36;;;;;;;5.93;4.90;;;;;;;17.33;79.13;100940.97;4925007;28;20294;-75
2022/06/04 06:40:03;;;;;;;5.30;4.80;;;;;;;17.30;79.38;100947.25;4919057;29;20580;-76
2022/06/04 06:42:31;;;;;;;5.33;4.83;;;;;;;17.28;79.46;100935.09;4925670;29;20203;-75
2022/06/04 06:45:05;;;;;;;6.30;5.27;;;;;;;17.28;79.28;100938.56;4914759;29;20545;-76
2022/06/04 06:47:32;;;;;;;6.20;5.70;;;;;;;17.33;79.06;100927.81;4930613;28;20227;-75
2022/06/04 06:50:00;;;;;;;7.17;6.57;;;;;;;17.41;79.15;100939.69;4929108;29;20230;-76
2022/06/04 06:52:26;;;;;;;7.37;6.60;;;;;;;17.52;78.14;100938.25;4932345;28;20728;-76
2022/06/04 06:54:53;;;;;;;6.13;5.53;;;;;;;17.62;77.42;100941.31;4932707;29;20559;-76
2022/06/04 06:57:19;;;;;;;8.43;7.63;;;;;;;17.69;75.88;100954.09;4930097;29;20598;-76
2022/06/04 06:59:48;;;;;;;6.13;5.63;;;;;;;17.79;75.03;100957.97;4928963;29;20196;-75
2022/06/04 07:02:15;;;;;;;6.97;6.10;;;;;;;17.80;75.14;100964.13;4931888;29;20207;-76
2022/06/04 07:04:41;;;;;;;6.43;5.80;;;;;;;17.84;74.64;100959.53;4934810;29;20191;-76
2022/06/04 07:07:08;;;;;;;6.87;6.20;;;;;;;17.90;76.23;100960.06;4930248;29;20228;-75
2022/06/04 07:09:37;;;;;;;9.80;7.10;;;;;;;17.88;75.27;100953.19;4929686;29;20234;-75
2022/06/04 07:12:05;;;;;;;7.20;6.50;;;;;;;17.81;75.03;100970.22;4925399;29;20211;-75
2022/06/04 07:14:32;;;;;;;7.97;6.53;;;;;;;17.92;73.88;100971.44;4919235;29;21489;-74
2022/06/04 07:17:00;;;;;;;9.73;6.77;;;;;;;17.91;73.56;100969.72;4920303;29;20225;-74
2022/06/04 07:19:27;;;;;;;8.07;7.27;;;;;;;17.92;73.43;100968.78;4922104;29;20195;-74
2022/06/04 07:21:56;;;;;;;6.30;5.10;;;;;;;17.96;72.67;100977.41;4926492;29;20210;-74
2022/06/04 07:24:23;;;;;;;7.57;6.80;;;;;;;18.02;72.13;100970.94;4922783;29;20210;-74
2022/06/04 07:26:50;;;;;;;10.47;9.10;;;;;;;18.05;72.62;100978.72;4917828;29;20673;-74
2022/06/04 07:29:17;;;;;;;7.13;6.43;;;;;;;18.07;71.41;100975.03;4922872;29;20762;-74
2022/06/04 07:31:44;;;;;;;8.10;7.27;;;;;;;18.17;71.87;100978.91;4929997;29;20672;-74
2022/06/04 07:34:11;;;;;;;6.83;6.13;;;;;;;18.20;71.34;100984.97;4926446;29;20309;-74
2022/06/04 07:36:40;;;;;;;6.43;5.73;;;;;;;18.22;71.37;100986.56;4926509;29;20223;-74
2022/06/04 07:39:09;;;;;;;6.20;5.60;;;;;;;18.30;72.29;100989.66;4918802;29;20191;-74
2022/06/04 07:41:38;;;;;;;11.00;7.83;;;;;;;18.32;72.02;100984.31;4921193;29;20207;-74
2022/06/04 07:44:06;;;;;;;4.70;4.20;;;;;;;18.37;71.60;100992.00;4920578;28;20211;-74
2022/06/04 07:46:32;;;;;;;5.80;5.20;;;;;;;18.30;71.15;100992.31;4923276;29;20227;-74
2022/06/04 07:49:01;;;;;;;8.27;6.93;;;;;;;18.37;71.72;100992.84;4916717;29;20207;-74
2022/06/04 07:51:29;;;;;;;12.87;10.23;;;;;;;18.38;69.44;100996.31;4918093;29;20764;-74
2022/06/04 07:53:56;;;;;;;9.33;8.43;;;;;;;18.28;68.74;100995.97;4925202;29;20222;-74
2022/06/04 07:56:22;;;;;;;5.90;4.60;;;;;;;18.22;69.67;101005.03;4920959;29;20218;-74
2022/06/04 07:58:50;;;;;;;6.03;3.93;;;;;;;18.26;70.25;101011.03;4921576;29;20593;-74
2022/06/04 08:01:19;;;;;;;5.27;4.77;;;;;;;18.30;70.45;101005.50;4922453;29;20204;-73
2022/06/04 08:03:47;;;;;;;4.50;4.10;;;;;;;18.23;71.80;101014.69;4923775;29;20211;-74
2022/06/04 08:06:17;;;;;;;4.70;4.30;;;;;;;18.15;71.01;101014.22;4924824;29;20239;-74
2022/06/04 08:08:45;;;;;;;4.77;4.07;;;;;;;18.03;70.36;101018.34;4925716;29;20684;-73
2022/06/04 08:11:32;;;;;;;4.87;4.00;;;;;;;17.95;70.76;101005.53;4928978;29;20231;-74
2022/06/04 08:14:00;;;;;;;5.03;4.53;;;;;;;17.97;71.11;101010.75;4931718;29;20209;-73
2022/06/04 08:16:26;;;;;;;4.43;3.80;;;;;;;17.98;71.12;101015.09;4924582;29;20219;-73
2022/06/04 08:18:53;;;;;;;4.20;3.80;;;;;;;17.94;73.22;101016.16;4922214;29;20199;-73
2022/06/04 08:21:19;;;;;;;3.90;3.60;;;;;;;17.91;73.88;101019.81;4923865;29;20238;-73
2022/06/04 08:23:47;;;;;;;3.93;3.63;;;;;;;17.81;74.41;101030.88;4926340;29;20203;-73
2022/06/04 08:26:14;;;;;;;3.97;3.67;;;;;;;17.74;72.49;101027.69;4924774;29;20782;-73
2022/06/04 08:28:40;;;;;;;4.20;3.70;;;;;;;17.67;72.78;101026.28;4925306;29;20669;-73
2022/06/04 08:31:10;;;;;;;4.93;3.67;;;;;;;17.66;73.08;101021.94;4922782;29;20241;-74
2022/06/04 08:33:37;;;;;;;4.63;4.23;;;;;;;17.56;72.26;101029.47;4925797;29;20210;-74
2022/06/04 08:36:04;;;;;;;5.73;4.07;;;;;;;17.50;72.45;101024.47;4922820;29;20770;-73
2022/06/04 08:38:31;;;;;;;4.60;4.17;;;;;;;17.48;71.79;101031.59;4922233;29;20231;-73
2022/06/04 08:41:01;;;;;;;4.23;3.80;;;;;;;17.47;73.15;101030.75;4919045;29;20667;-73
2022/06/04 08:43:38;;;;;;;4.97;4.17;;;;;;;17.47;73.87;101038.66;4916938;29;20202;-74
2022/06/04 08:46:12;;;;;;;9.37;6.67;;;;;;;17.40;74.30;101040.75;4918808;29;20223;-74
2022/06/04 08:48:39;;;;;;;6.53;4.60;;;;;;;17.38;74.41;101049.66;4929063;29;20218;-76
2022/06/04 08:51:23;;;;;;;7.77;4.60;;;;;;;17.34;75.50;101045.44;4925356;29;20683;-76
2022/06/04 08:53:52;;;;;;;6.33;4.70;;;;;;;17.32;77.50;101053.41;4920851;29;20203;-73
2022/06/04 08:59:18;;;;;;;10.37;6.10;;;;;;;17.21;81.35;101053.94;4914483;29;20200;-73
2022/06/04 09:01:49;;;;;;;5.70;4.37;;;;;;;17.15;79.30;101056.00;4922966;29;20920;-74
2022/06/04 09:04:30;;;;;;;8.07;5.50;;;;;;;17.06;78.36;101064.34;4924006;28;20634;-74
2022/06/04 09:07:05;;;;;;;11.13;7.43;;;;;;;17.03;78.83;101074.09;4911006;29;20239;-73
2022/06/04 09:09:37;;;;;;;4.50;4.03;;;;;;;17.03;79.49;101068.81;4904396;29;20259;-74
2022/06/04 09:12:13;;;;;;;5.13;3.93;;;;;;;16.98;81.87;101073.44;4899147;29;20303;-74
2022/06/04 09:14:43;;;;;;;4.17;3.77;;;;;;;16.98;81.33;101075.25;4905653;29;21372;-74
2022/06/04 09:17:17;;;;;;;7.83;4.20;;;;;;;16.96;80.75;101082.34;4905347;29;20722;-74
2022/06/04 09:19:48;;;;;;;8.03;3.77;;;;;;;16.93;83.71;101083.34;4910523;29;20232;-74
2022/06/04 09:22:20;;;;;;;4.27;3.60;;;;;;;16.86;87.52;101088.97;4908040;29;20606;-74
2022/06/04 09:24:46;;;;;;;4.27;3.80;;;;;;;16.83;87.72;101088.19;4904057;29;20200;-73
2022/06/04 09:27:28;;;;;;;4.57;3.80;;;;;;;16.81;89.23;101092.59;4905722;29;20247;-74
2022/06/04 09:30:03;;;;;;;4.90;4.37;;;;;;;16.80;89.26;101095.34;4905468;29;20603;-73
2022/06/04 09:32:45;;;;;;;4.77;3.83;;;;;;;16.78;92.98;101105.94;4908955;29;20214;-73
2022/06/04 09:35:12;;;;;;;5.20;4.23;;;;;;;16.76;92.62;101104.28;4906427;29;20639;-73
2022/06/04 09:37:43;;;;;;;4.60;4.10;;;;;;;16.70;92.63;101113.31;4916347;29;20612;-73
2022/06/04 09:40:19;;;;;;;4.27;3.87;;;;;;;16.70;94.60;101109.81;4917075;29;20211;-74
2022/06/04 09:42:46;;;;;;;5.20;4.50;;;;;;;16.68;97.39;101107.25;4916838;29;20616;-76
2022/06/04 09:45:23;;;;;;;5.13;4.23;;;;;;;16.66;98.88;101101.22;4914297;29;20700;-73
2022/06/04 09:47:54;;;;;;;5.77;4.33;;;;;;;16.62;99.48;101105.75;4913490;29;20611;-74
2022/06/04 09:50:24;;;;;;;4.53;4.13;;;;;;;16.64;96.54;101097.78;4916142;29;20228;-74
2022/06/04 09:53:01;;;;;;;5.63;5.10;;;;;;;16.60;95.99;101097.06;4892744;29;20200;-74
2022/06/04 09:55:29;;;;;;;5.60;4.30;;;;;;;16.59;95.90;101107.66;4909627;29;20286;-74
2022/06/04 09:57:59;;;;;;;5.27;4.37;;;;;;;16.55;100.00;101099.03;4905738;29;20204;-74
2022/06/04 10:00:29;;;;;;;5.60;5.03;;;;;;;16.52;100.00;101108.84;4907335;29;20208;-74
2022/06/04 10:02:57;;;;;;;5.33;4.53;;;;;;;16.51;100.00;101105.34;4915592;29;20246;-74
2022/06/04 10:05:26;;;;;;;5.63;4.90;;;;;;;16.56;100.00;101108.63;4912162;29;20211;-74
2022/06/04 10:07:53;;;;;;;5.07;4.57;;;;;;;16.56;100.00;101102.53;4931864;29;20366;-74
2022/06/04 10:10:27;;;;;;;6.57;5.43;;;;;;;16.60;100.00;101102.34;4931891;28;22270;-74
2022/06/04 10:15:44;;;;;;;6.83;5.53;;;;;;;16.74;100.00;101104.34;4934981;29;20202;-74
2022/06/04 10:18:24;;;;;;;6.27;5.67;;;;;;;16.82;100.00;101096.13;4936887;28;20662;-74
2022/06/04 10:21:00;;;;;;;5.67;5.10;;;;;;;16.94;100.00;101092.97;4938317;28;20235;-74
2022/06/04 10:23:28;;;;;;;6.03;5.43;;;;;;;17.00;100.00;101091.81;4935855;29;20220;-73
2022/06/04 10:26:24;;;;;;;6.07;4.90;;;;;;;17.11;100.00;101093.97;4940718;28;20273;-73
2022/06/04 10:29:05;;;;;;;7.00;5.20;;;;;;;17.24;100.00;101100.38;4928099;29;20199;-73
2022/06/04 10:31:47;;;;;;;6.07;5.20;;;;;;;17.45;100.00;101089.72;4923689;29;20335;-74
2022/06/04 10:34:26;;;;;;;5.90;5.30;;;;;;;17.62;100.00;101092.41;4928147;29;20430;-73
2022/06/04 10:37:02;;;;;;;5.33;4.57;;;;;;;17.81;100.00;101088.91;4930936;28;20229;-74
2022/06/04 10:39:42;;;;;;;5.63;5.13;;;;;;;18.04;100.00;101099.19;4934462;29;20206;-73
2022/06/04 10:42:22;;;;;;;5.53;4.90;;;;;;;18.11;99.72;101102.38;4932961;29;20618;-74
2022/06/04 10:45:03;;;;;;;5.00;4.50;;;;;;;18.38;99.87;101089.59;4930470;29;20209;-74
2022/06/04 10:47:34;;;;;;;7.73;5.70;;;;;;;18.68;100.00;101084.50;4929009;29;20233;-73
2022/06/04 10:50:23;;;;;;;7.23;5.27;;;;;;;18.91;97.08;101079.81;4932341;29;20251;-73
2022/06/04 10:52:56;;;;;;;5.63;5.13;;;;;;;19.24;98.67;101082.41;4927068;28;20207;-73
2022/06/04 10:55:31;;;;;;;7.43;5.57;;;;;;;19.25;96.88;101091.16;4927512;29;20195;-73
2022/06/04 10:58:13;;;;;;;5.60;5.10;;;;;;;19.33;90.76;101098.66;4929233;29;20689;-73
2022/06/04 11:00:44;;;;;;;6.87;5.77;;;;;;;19.49;82.08;101110.13;4926392;29;20294;-73
2022/06/04 11:03:20;;;;;;;8.87;7.00;;;;;;;19.42;76.60;101106.94;4907079;29;20213;-72
2022/06/04 11:05:53;;;;;;;7.27;6.10;;;;;;;19.53;79.44;101101.06;4919351;28;20230;-73
2022/06/04 11:08:24;;;;;;;5.17;4.70;;;;;;;19.60;75.15;101109.50;4935823;29;20208;-73
2022/06/04 11:10:54;;;;;;;6.03;4.60;;;;;;;19.68;74.90;101115.19;4936071;28;20233;-73
2022/06/04 11:13:24;;;;;;;5.40;4.90;;;;;;;19.75;80.87;101103.38;4926646;29;20576;-73
2022/06/04 11:15:55;;;;;;;11.03;7.37;;;;;;;19.77;73.70;101121.78;4934425;29;20237;-73
2022/06/04 11:18:28;;;;;;;6.83;5.37;;;;;;;19.71;73.76;101115.03;4930800;29;20302;-73
2022/06/04 11:21:02;;;;;;;5.40;4.20;;;;;;;19.81;72.42;101121.53;4932853;29;20199;-73
2022/06/04 11:23:41;;;;;;;6.57;4.80;;;;;;;20.02;77.71;101108.03;4925111;29;20251;-72
2022/06/04 11:26:19;;;;;;;5.13;4.63;;;;;;;20.10;69.93;101123.44;4931662;29;20222;-72
2022/06/04 11:28:45;;;;;;;5.17;4.40;;;;;;;20.03;70.07;101123.81;4938601;29;20305;-72
2022/06/04 11:31:28;;;;;;;5.07;4.57;;;;;;;20.08;71.66;101112.94;4934995;29;20600;-72
2022/06/04 11:34:18;;;;;;;5.13;4.63;;;;;;;20.05;69.41;101110.47;4934126;29;20594;-75
2022/06/04 11:36:55;;;;;;;4.73;4.30;;;;;;;20.18;66.91;101122.06;4937887;28;20281;-75
2022/06/04 11:39:35;;;;;;;4.60;4.20;;;;;;;20.51;67.88;101118.38;4935600;29;20210;-75
2022/06/04 11:42:12;;;;;;;4.67;4.27;;;;;;;20.82;66.43;101126.28;4935351;28;20289;-75
2022/06/04 11:45:04;;;;;;;4.50;4.10;;;;;;;21.18;64.76;101123.97;4933313;29;20210;-75
2022/06/04 11:47:49;;;;;;;4.70;4.30;;;;;;;21.43;63.48;101117.13;4902696;28;20237;-75
2022/06/04 11:50:25;;;;;;;4.93;4.40;;;;;;;21.70;64.13;101111.00;4936883;29;20219;-75
2022/06/04 11:53:00;;;;;;;4.43;4.00;;;;;;;21.68;60.29;101121.72;4929930;29;20220;-75
2022/06/04 11:55:33;;;;;;;4.30;3.90;;;;;;;21.73;58.61;101118.78;4935524;29;20209;-75
2022/06/04 11:58:22;;;;;;;4.05;3.75;;;;;;;21.73;58.59;101116.13;4922232;29;20202;-76